createdAt,value
2023-01-11T00:01:06.477Z,1.10
2023-01-11T00:03:34.796Z,1.10
2023-01-11T00:06:02.916Z,1.00
2023-01-11T00:08:31.249Z,1.00
2023-01-11T00:11:02.231Z,1.00
2023-01-11T00:13:30.669Z,1.00
2023-01-11T00:15:58.695Z,0.90
2023-01-11T00:18:26.769Z,0.90
2023-01-11T00:20:55.167Z,0.90
2023-01-11T00:23:23.173Z,0.90
2023-01-11T00:25:51.103Z,0.90
2023-01-11T00:28:20.437Z,0.90
2023-01-11T00:30:50.008Z,0.90
2023-01-11T00:33:18.194Z,0.90
2023-01-11T00:35:46.156Z,1.00
2023-01-11T00:38:34.383Z,1.00
2023-01-11T00:41:22.622Z,1.00
2023-01-11T00:44:09.558Z,1.00
2023-01-11T00:46:55.928Z,1.10
2023-01-11T00:49:24.062Z,1.10
2023-01-11T00:51:52.091Z,1.10
2023-01-11T00:54:20.347Z,1.20
2023-01-11T00:56:48.373Z,1.20
2023-01-11T00:59:17.771Z,1.20
2023-01-11T01:01:45.835Z,1.30
2023-01-11T01:04:13.827Z,1.30
2023-01-11T01:06:42.355Z,1.40
2023-01-11T01:09:35.447Z,1.40
2023-01-11T01:12:03.555Z,1.50
2023-01-11T01:14:33.499Z,1.50
2023-01-11T01:17:03.448Z,1.50
2023-01-11T01:19:32.603Z,1.60
2023-01-11T01:22:01.343Z,1.60
2023-01-11T01:24:30.821Z,1.60
2023-01-11T01:26:59.920Z,1.70
2023-01-11T01:29:28.611Z,1.70
2023-01-11T01:31:57.984Z,1.70
2023-01-11T01:34:26.076Z,1.70
2023-01-11T01:36:54.063Z,1.70
2023-01-11T01:39:22.063Z,1.70
2023-01-11T01:41:50.449Z,1.80
2023-01-11T01:44:57.026Z,1.80
2023-01-11T01:47:32.336Z,1.80
2023-01-11T01:50:05.834Z,1.80
2023-01-11T01:52:35.366Z,1.80
2023-01-11T01:55:08.726Z,1.90
2023-01-11T01:57:40.268Z,1.90
2023-01-11T02:00:10.431Z,1.90
2023-01-11T02:02:41.608Z,1.90
2023-01-11T02:05:10.846Z,2.00
2023-01-11T02:07:41.525Z,2.00
2023-01-11T02:10:11.652Z,2.10
2023-01-11T02:12:43.297Z,2.20
2023-01-11T02:15:13.365Z,2.30
2023-01-11T02:17:42.672Z,2.30
2023-01-11T02:20:45.881Z,2.30
2023-01-11T02:23:52.620Z,2.30
2023-01-11T02:26:55.392Z,2.30
2023-01-11T02:29:34.298Z,2.30
2023-01-11T02:32:14.251Z,2.30
2023-01-11T02:34:49.084Z,2.30
2023-01-11T02:37:28.698Z,2.30
2023-01-11T02:40:07.110Z,2.30
2023-01-11T02:42:57.191Z,2.30
2023-01-11T02:45:37.931Z,2.20
2023-01-11T02:48:17.531Z,2.20
2023-01-11T02:50:51.523Z,2.20
2023-01-11T02:53:26.787Z,2.20
2023-01-11T02:55:58.829Z,2.20
2023-01-11T02:58:30.366Z,2.10
2023-01-11T03:01:00.699Z,2.10
2023-01-11T03:03:29.507Z,2.00
2023-01-11T03:06:02.173Z,2.00
2023-01-11T03:08:51.995Z,2.00
2023-01-11T03:11:53.797Z,2.00
2023-01-11T03:14:28.158Z,2.00
2023-01-11T03:17:07.074Z,2.00
2023-01-11T03:19:41.103Z,1.90
2023-01-11T03:22:13.918Z,1.90
2023-01-11T03:24:47.096Z,1.80
2023-01-11T03:27:23.101Z,1.70
2023-01-11T03:29:56.606Z,1.70
2023-01-11T03:32:32.125Z,1.70
2023-01-11T03:35:14.210Z,1.70
2023-01-11T03:37:48.131Z,1.70
2023-01-11T03:40:19.250Z,1.70
2023-01-11T03:43:08.948Z,1.70
2023-01-11T03:45:40.741Z,1.70
2023-01-11T03:48:14.071Z,1.70
2023-01-11T03:50:42.814Z,1.70
2023-01-11T03:53:12.449Z,1.70
2023-01-11T03:55:43.145Z,1.70
2023-01-11T03:58:11.415Z,1.70
2023-01-11T04:00:40.468Z,1.70
2023-01-11T04:03:12.577Z,1.70
2023-01-11T04:05:43.762Z,1.70
2023-01-11T04:08:11.938Z,1.70
2023-01-11T04:10:40.380Z,1.60
2023-01-11T04:13:08.378Z,1.70
2023-01-11T04:15:36.379Z,1.60
2023-01-11T04:18:05.840Z,1.70
2023-01-11T04:20:36.916Z,1.60
2023-01-11T04:23:05.999Z,1.60
2023-01-11T04:25:34.428Z,1.60
2023-01-11T04:28:02.398Z,1.60
2023-01-11T04:30:30.592Z,1.60
2023-01-11T04:32:59.438Z,1.70
2023-01-11T04:35:28.106Z,1.70
2023-01-11T04:37:58.558Z,1.80
2023-01-11T04:40:26.916Z,1.80
2023-01-11T04:42:53.952Z,1.90
2023-01-11T04:45:21.963Z,1.90
2023-01-11T04:47:55.710Z,2.00
2023-01-11T04:50:24.649Z,2.00
2023-01-11T04:52:53.263Z,2.10
2023-01-11T04:55:23.124Z,2.10
2023-01-11T04:57:51.080Z,2.10
2023-01-11T05:00:20.147Z,2.20
2023-01-11T05:02:48.241Z,2.20
2023-01-11T05:05:16.272Z,2.30
2023-01-11T05:07:44.283Z,2.30
2023-01-11T05:10:13.179Z,2.30
2023-01-11T05:12:42.718Z,2.30
2023-01-11T05:15:12.687Z,2.30
2023-01-11T05:17:40.692Z,2.40
2023-01-11T05:20:10.029Z,2.40
2023-01-11T05:22:38.029Z,2.40
2023-01-11T05:25:07.438Z,2.40
2023-01-11T05:27:35.424Z,2.50
2023-01-11T05:30:05.213Z,2.50
2023-01-11T05:32:33.180Z,2.50
2023-01-11T05:35:01.202Z,2.60
2023-01-11T05:37:30.518Z,2.60
2023-01-11T05:39:58.504Z,2.60
2023-01-11T05:42:26.461Z,2.60
2023-01-11T05:45:11.997Z,2.60
2023-01-11T05:47:41.880Z,2.70
2023-01-11T05:50:11.712Z,2.70
2023-01-11T05:52:39.923Z,2.70
2023-01-11T05:55:09.287Z,2.70
2023-01-11T05:57:37.290Z,2.70
2023-01-11T06:00:06.311Z,2.80
2023-01-11T06:02:36.251Z,2.80
2023-01-11T06:05:06.587Z,2.90
2023-01-11T06:07:34.605Z,2.90
2023-01-11T06:10:02.821Z,2.90
2023-01-11T06:12:31.077Z,2.90
2023-01-11T06:14:59.410Z,3.00
2023-01-11T06:17:27.466Z,3.10
2023-01-11T06:19:55.498Z,3.10
2023-01-11T06:22:24.925Z,3.10
2023-01-11T06:24:55.733Z,3.20
2023-01-11T06:27:23.722Z,3.10
2023-01-11T06:29:51.755Z,3.20
2023-01-11T06:32:19.785Z,3.10
2023-01-11T06:34:47.817Z,3.20
2023-01-11T06:37:16.009Z,3.20
2023-01-11T06:39:45.401Z,3.20
2023-01-11T06:42:13.412Z,3.20
2023-01-11T06:44:41.373Z,3.20
2023-01-11T06:47:09.511Z,3.20
2023-01-11T06:49:37.730Z,3.20
2023-01-11T06:52:05.750Z,3.20
2023-01-11T06:54:33.795Z,3.20
2023-01-11T06:57:03.162Z,3.20
2023-01-11T06:59:31.134Z,3.20
2023-01-11T07:02:00.836Z,3.20
2023-01-11T07:04:28.946Z,3.30
2023-01-11T07:06:56.950Z,3.30
2023-01-11T07:09:25.070Z,3.30
2023-01-11T07:11:53.095Z,3.30
2023-01-11T07:14:23.012Z,3.20
2023-01-11T07:16:50.998Z,3.30
2023-01-11T07:19:19.191Z,3.30
2023-01-11T07:21:47.298Z,3.30
2023-01-11T07:24:15.307Z,3.30
2023-01-11T07:26:43.509Z,3.30
2023-01-11T07:29:12.045Z,3.30
2023-01-11T07:31:41.484Z,3.40
2023-01-11T07:34:09.509Z,3.40
2023-01-11T07:36:39.581Z,3.50
2023-01-11T07:39:09.388Z,3.40
2023-01-11T07:41:55.242Z,3.50
2023-01-11T07:44:23.267Z,3.40
2023-01-11T07:46:52.801Z,3.40
2023-01-11T07:49:21.141Z,3.40
2023-01-11T07:51:52.010Z,3.50
2023-01-11T07:54:20.081Z,3.60
2023-01-11T07:56:48.087Z,3.60
2023-01-11T07:59:16.041Z,3.60
2023-01-11T08:01:44.766Z,3.70
2023-01-11T08:04:14.338Z,3.70
2023-01-11T08:06:42.686Z,3.70
2023-01-11T08:09:11.338Z,3.70
2023-01-11T08:11:57.226Z,3.70
2023-01-11T08:14:40.197Z,3.70
2023-01-11T08:17:08.765Z,3.80
2023-01-11T08:19:38.342Z,3.90
2023-01-11T08:22:06.834Z,4.00
2023-01-11T08:24:35.715Z,4.00
2023-01-11T08:27:04.387Z,4.10
2023-01-11T08:29:32.996Z,4.10
2023-01-11T08:32:01.096Z,4.20
2023-01-11T08:34:30.337Z,4.20
2023-01-11T08:37:02.145Z,4.30
2023-01-11T08:39:30.993Z,4.30
2023-01-11T08:41:59.484Z,4.40
2023-01-11T08:44:35.145Z,4.40
2023-01-11T08:47:06.592Z,4.50
2023-01-11T08:49:34.701Z,4.50
2023-01-11T08:52:04.300Z,4.50
2023-01-11T08:54:32.400Z,4.60
2023-01-11T08:57:00.404Z,4.70
2023-01-11T08:59:32.229Z,4.70
2023-01-11T09:02:01.108Z,4.70
2023-01-11T09:04:29.490Z,4.80
2023-01-11T09:06:57.508Z,4.90
2023-01-11T09:09:27.140Z,4.90
2023-01-11T09:12:01.650Z,5.00
2023-01-11T09:14:30.400Z,5.10
2023-01-11T09:17:22.510Z,5.20
2023-01-11T09:19:50.796Z,5.30
2023-01-11T09:22:19.207Z,5.40
2023-01-11T09:24:48.622Z,5.50
2023-01-11T09:27:16.843Z,5.60
2023-01-11T09:29:46.114Z,5.70
2023-01-11T09:32:15.518Z,5.70
2023-01-11T09:34:46.852Z,5.90
2023-01-11T09:37:15.060Z,6.10
2023-01-11T09:39:43.329Z,6.20
2023-01-11T09:42:37.552Z,6.30
2023-01-11T09:45:13.895Z,6.40
2023-01-11T09:47:47.603Z,6.60
2023-01-11T09:50:21.857Z,6.80
2023-01-11T09:52:53.207Z,6.90
2023-01-11T09:55:38.545Z,7.00
2023-01-11T09:58:26.904Z,7.00
2023-01-11T10:01:03.299Z,7.00
2023-01-11T10:03:54.299Z,7.20
2023-01-11T10:06:29.664Z,7.20
2023-01-11T10:18:23.132Z,7.60
2023-01-11T10:18:45.455Z,7.70
2023-01-11T10:21:18.096Z,7.80
2023-01-11T10:23:53.567Z,8.00
2023-01-11T10:26:29.034Z,8.20
2023-01-11T10:29:33.316Z,8.30
2023-01-11T10:32:18.701Z,8.40
2023-01-11T10:35:00.343Z,8.50
2023-01-11T10:37:50.049Z,8.60
2023-01-11T10:40:38.722Z,8.90
2023-01-11T10:43:16.905Z,8.80
2023-01-11T10:45:50.356Z,9.30
2023-01-11T10:48:27.425Z,9.40
2023-01-11T10:51:05.468Z,9.50
2023-01-11T10:53:38.361Z,9.60
2023-01-11T10:56:19.719Z,9.40
2023-01-11T10:59:07.345Z,9.60
2023-01-11T11:01:51.639Z,9.50
2023-01-11T11:04:41.021Z,9.60
2023-01-11T11:07:15.281Z,9.60
2023-01-11T11:09:51.857Z,9.40
2023-01-11T11:12:24.764Z,9.40
2023-01-11T11:14:59.700Z,9.50
2023-01-11T11:17:32.318Z,9.30
2023-01-11T11:20:02.318Z,9.30
2023-01-11T11:22:30.518Z,9.20
2023-01-11T11:25:01.881Z,9.20
2023-01-11T11:27:34.215Z,9.20
2023-01-11T11:30:03.300Z,9.20
2023-01-11T11:32:36.609Z,9.40
2023-01-11T11:35:09.025Z,9.60
2023-01-11T11:37:42.712Z,9.60
2023-01-11T11:40:30.103Z,9.70
2023-01-11T11:43:11.683Z,10.00
2023-01-11T11:45:52.109Z,10.50
2023-01-11T11:48:20.254Z,10.90
2023-01-11T11:50:50.679Z,11.10
2023-01-11T11:53:38.709Z,11.50
2023-01-11T11:56:17.799Z,11.50
2023-01-11T11:58:46.600Z,11.20
2023-01-11T12:01:28.631Z,11.20
2023-01-11T12:03:59.779Z,11.20
2023-01-11T12:06:30.766Z,10.80
2023-01-11T12:09:02.340Z,10.40
2023-01-11T12:11:34.216Z,10.20
2023-01-11T12:14:05.544Z,10.00
2023-01-11T12:16:37.774Z,9.70
2023-01-11T12:19:25.357Z,9.60
2023-01-11T12:21:55.251Z,9.60
2023-01-11T12:24:24.161Z,9.50
2023-01-11T12:27:03.900Z,9.50
2023-01-11T12:29:53.111Z,9.50
2023-01-11T12:32:51.342Z,9.60
2023-01-11T12:35:34.628Z,9.50
2023-01-11T12:38:19.132Z,9.40
2023-01-11T12:41:00.004Z,9.30
2023-01-11T12:43:39.114Z,9.20
2023-01-11T12:46:18.781Z,9.10
2023-01-11T12:49:01.353Z,9.10
2023-01-11T12:51:53.301Z,9.10
2023-01-11T12:54:43.955Z,9.10
2023-01-11T12:57:22.151Z,9.10
2023-01-11T13:00:23.789Z,9.10
2023-01-11T13:03:15.709Z,9.20
2023-01-11T13:05:54.839Z,9.20
2023-01-11T13:08:31.026Z,9.30
2023-01-11T13:11:07.031Z,9.30
2023-01-11T13:13:50.060Z,9.20
2023-01-11T13:16:24.093Z,9.20
2023-01-11T13:18:59.786Z,9.10
2023-01-11T13:21:34.281Z,9.00
2023-01-11T13:24:09.276Z,9.00
2023-01-11T13:26:42.399Z,8.90
2023-01-11T13:29:17.133Z,8.90
2023-01-11T13:31:47.960Z,8.80
2023-01-11T13:34:20.444Z,8.80
2023-01-11T13:36:55.586Z,8.70
2023-01-11T13:39:30.105Z,8.60
2023-01-11T13:42:04.378Z,8.60
2023-01-11T13:44:37.282Z,8.60
2023-01-11T13:47:10.483Z,8.60
2023-01-11T13:49:56.450Z,8.60
2023-01-11T13:52:37.780Z,8.60
2023-01-11T13:55:20.859Z,8.60
2023-01-11T13:57:58.367Z,8.50
2023-01-11T14:00:35.294Z,8.60
2023-01-11T14:03:14.941Z,8.50
2023-01-11T14:05:52.364Z,8.50
2023-01-11T14:08:30.750Z,8.50
2023-01-11T14:11:12.020Z,8.50
2023-01-11T14:14:18.020Z,8.50
2023-01-11T14:17:07.245Z,8.50
2023-01-11T14:19:41.975Z,8.50
2023-01-11T14:22:21.811Z,8.40
2023-01-11T14:24:56.578Z,8.50
2023-01-11T14:28:01.151Z,8.40
2023-01-11T14:30:50.842Z,8.30
2023-01-11T14:33:49.094Z,8.30
2023-01-11T14:36:44.195Z,8.30
2023-01-11T14:39:42.654Z,8.20
2023-01-11T14:42:47.539Z,8.20
2023-01-11T14:45:34.923Z,8.20
2023-01-11T14:48:18.889Z,8.10
2023-01-11T14:51:11.738Z,8.20
2023-01-11T14:53:45.050Z,8.30
2023-01-11T14:56:53.721Z,8.40
2023-01-11T14:59:33.234Z,8.40
2023-01-11T15:02:26.278Z,8.50
2023-01-11T15:05:12.630Z,8.50
2023-01-11T15:07:43.874Z,8.50
2023-01-11T15:10:54.532Z,8.40
2023-01-11T15:13:26.678Z,8.40
2023-01-11T15:16:26.134Z,8.30
2023-01-11T15:18:55.702Z,8.30
2023-01-11T15:21:26.950Z,8.30
2023-01-11T15:23:59.593Z,8.30
2023-01-11T15:26:28.757Z,8.20
2023-01-11T15:29:00.732Z,8.20
2023-01-11T15:31:39.236Z,8.20
2023-01-11T15:34:23.140Z,8.20
2023-01-11T15:37:07.499Z,8.10
2023-01-11T15:39:42.223Z,8.10
2023-01-11T15:42:29.318Z,8.10
2023-01-11T15:45:25.231Z,8.10
2023-01-11T15:48:16.843Z,8.00
2023-01-11T15:51:09.273Z,8.00
2023-01-11T15:54:07.605Z,8.00
2023-01-11T15:56:51.124Z,8.00
2023-01-11T16:00:01.801Z,8.00
2023-01-11T16:02:54.607Z,7.90
2023-01-11T16:05:24.974Z,8.00
2023-01-11T16:08:03.134Z,7.90
2023-01-11T16:10:48.481Z,7.90
2023-01-11T16:13:32.624Z,7.90
2023-01-11T16:16:11.549Z,7.90
2023-01-11T16:18:45.365Z,7.90
2023-01-11T16:21:19.039Z,7.80
2023-01-11T16:23:47.796Z,7.80
2023-01-11T16:26:20.454Z,7.80
2023-01-11T16:28:50.838Z,7.80
2023-01-11T16:31:19.183Z,7.80
2023-01-11T16:33:49.719Z,7.70
2023-01-11T16:36:21.325Z,7.70
2023-01-11T16:38:59.806Z,7.70
2023-01-11T16:41:37.924Z,7.70
2023-01-11T16:44:10.385Z,7.60
2023-01-11T16:47:13.297Z,7.70
2023-01-11T16:49:43.172Z,7.70
2023-01-11T16:52:47.978Z,7.60
2023-01-11T16:55:26.626Z,7.60
2023-01-11T16:57:59.716Z,7.50
2023-01-11T17:00:32.903Z,7.50
2023-01-11T17:03:21.232Z,7.50
2023-01-11T17:05:55.452Z,7.40
2023-01-11T17:08:30.010Z,7.40
2023-01-11T17:11:02.134Z,7.40
2023-01-11T17:14:05.440Z,7.40
2023-01-11T17:16:39.026Z,7.40
2023-01-11T17:19:10.174Z,7.40
2023-01-11T17:21:38.240Z,7.40
2023-01-11T17:24:07.828Z,7.40
2023-01-11T17:26:45.538Z,7.40
2023-01-11T17:29:18.213Z,7.30
2023-01-11T17:31:46.375Z,7.30
2023-01-11T17:34:20.624Z,7.30
2023-01-11T17:36:49.792Z,7.30
2023-01-11T17:39:24.375Z,7.30
2023-01-11T17:42:10.044Z,7.30
2023-01-11T17:44:58.705Z,7.30
2023-01-11T17:47:27.604Z,7.20
2023-01-11T17:49:57.609Z,7.20
2023-01-11T17:52:27.180Z,7.20
2023-01-11T17:55:03.623Z,7.20
2023-01-11T17:57:31.890Z,7.20
2023-01-11T18:00:24.763Z,7.20
2023-01-11T18:02:53.489Z,7.20
2023-01-11T18:05:26.727Z,7.10
2023-01-11T18:07:58.160Z,7.10
2023-01-11T18:10:28.751Z,7.00
2023-01-11T18:12:58.209Z,7.00
2023-01-11T18:15:31.629Z,7.00
2023-01-11T18:18:03.574Z,7.00
2023-01-11T18:20:37.069Z,7.00
2023-01-11T18:23:22.763Z,7.00
2023-01-11T18:25:50.913Z,7.00
2023-01-11T18:28:30.359Z,7.00
2023-01-11T18:31:01.888Z,7.00
2023-01-11T18:33:32.331Z,7.00
2023-01-11T18:36:03.075Z,7.00
2023-01-11T18:38:34.101Z,7.00
2023-01-11T18:41:25.981Z,7.00
2023-01-11T18:43:54.676Z,7.00
2023-01-11T18:46:24.259Z,7.00
2023-01-11T18:48:52.492Z,7.00
2023-01-11T18:51:23.910Z,6.90
2023-01-11T18:53:52.077Z,6.90
2023-01-11T18:56:20.431Z,6.90
2023-01-11T18:58:48.491Z,6.90
2023-01-11T19:01:16.918Z,6.90
2023-01-11T19:03:46.945Z,6.90
2023-01-11T19:06:19.273Z,6.90
2023-01-11T19:08:47.374Z,6.80
2023-01-11T19:11:16.840Z,6.90
2023-01-11T19:13:46.770Z,6.80
2023-01-11T19:16:15.935Z,6.80
2023-01-11T19:18:45.328Z,6.70
2023-01-11T19:21:14.820Z,6.80
2023-01-11T19:23:44.029Z,6.70
2023-01-11T19:26:12.182Z,6.70
2023-01-11T19:28:40.194Z,6.70
2023-01-11T19:31:09.485Z,6.70
2023-01-11T19:33:37.603Z,6.70
2023-01-11T19:36:07.732Z,6.70
2023-01-11T19:38:38.737Z,6.70
2023-01-11T19:41:08.553Z,6.70
2023-01-11T19:43:37.285Z,6.60
2023-01-11T19:46:05.571Z,6.60
2023-01-11T19:48:34.639Z,6.60
2023-01-11T19:51:03.649Z,6.60
2023-01-11T19:53:32.145Z,6.60
2023-01-11T19:56:06.023Z,6.60
2023-01-11T19:58:37.238Z,6.50
2023-01-11T20:01:11.749Z,6.60
2023-01-11T20:03:41.459Z,6.50
2023-01-11T20:06:10.166Z,6.60
2023-01-11T20:08:43.705Z,6.60
2023-01-11T20:11:15.079Z,6.60
2023-01-11T20:13:45.335Z,6.50
2023-01-11T20:16:14.895Z,6.50
2023-01-11T20:18:43.251Z,6.50
2023-01-11T20:21:11.486Z,6.40
2023-01-11T20:23:39.594Z,6.50
2023-01-11T20:26:14.812Z,6.50
2023-01-11T20:28:45.769Z,6.50
2023-01-11T20:31:14.735Z,6.40
2023-01-11T20:33:42.838Z,6.50
2023-01-11T20:36:12.459Z,6.40
2023-01-11T20:38:40.837Z,6.40
2023-01-11T20:41:11.067Z,6.40
2023-01-11T20:43:39.715Z,6.30
2023-01-11T20:46:09.113Z,6.30
2023-01-11T20:48:37.173Z,6.30
2023-01-11T20:51:05.785Z,6.30
2023-01-11T20:53:34.444Z,6.30
2023-01-11T20:56:05.866Z,6.30
2023-01-11T20:58:34.618Z,6.30
2023-01-11T21:01:05.045Z,6.20
2023-01-11T21:03:34.584Z,6.20
2023-01-11T21:06:03.854Z,6.20
2023-01-11T21:08:31.966Z,6.10
2023-01-11T21:11:05.181Z,6.10
2023-01-11T21:13:33.268Z,6.10
2023-01-11T21:16:08.600Z,6.10
2023-01-11T21:18:38.666Z,6.00
2023-01-11T21:21:07.059Z,6.00
2023-01-11T21:23:35.104Z,6.00
2023-01-11T21:26:04.842Z,6.00
2023-01-11T21:28:34.986Z,6.00
2023-01-11T21:31:04.369Z,6.00
2023-01-11T21:33:32.583Z,6.00
2023-01-11T21:36:04.918Z,6.00
2023-01-11T21:38:34.412Z,6.10
2023-01-11T21:41:07.075Z,6.10
2023-01-11T21:43:36.146Z,6.20
2023-01-11T21:46:05.780Z,6.20
2023-01-11T21:48:33.921Z,6.20
2023-01-11T21:51:02.836Z,6.20
2023-01-11T21:53:33.854Z,6.20
2023-01-11T21:56:04.311Z,6.20
2023-01-11T21:58:32.482Z,6.20
2023-01-11T22:01:00.883Z,6.20
2023-01-11T22:03:30.564Z,6.20
2023-01-11T22:06:01.633Z,6.10
2023-01-11T22:08:31.534Z,6.20
2023-01-11T22:11:00.979Z,6.20
2023-01-11T22:13:30.233Z,6.20
2023-01-11T22:16:01.733Z,6.20
2023-01-11T22:18:30.284Z,6.20
2023-01-11T22:20:58.573Z,6.20
2023-01-11T22:23:26.714Z,6.20
2023-01-11T22:25:56.766Z,6.20
2023-01-11T22:28:24.846Z,6.20
2023-01-11T22:30:52.857Z,6.20
2023-01-11T22:33:20.889Z,6.20
2023-01-11T22:35:55.324Z,6.20
2023-01-11T22:38:23.607Z,6.30
2023-01-11T22:40:51.849Z,6.30
2023-01-11T22:43:21.233Z,6.40
2023-01-11T22:45:58.375Z,6.50
2023-01-11T22:48:26.676Z,6.40
2023-01-11T22:50:55.188Z,6.40
2023-01-11T22:53:23.216Z,6.40
2023-01-11T22:55:51.214Z,6.40
2023-01-11T22:58:20.543Z,6.50
2023-01-11T23:00:49.154Z,6.50
2023-01-11T23:03:17.346Z,6.40
2023-01-11T23:05:46.808Z,6.40
2023-01-11T23:08:15.171Z,6.40
2023-01-11T23:10:43.379Z,6.30
2023-01-11T23:13:35.076Z,6.30
2023-01-11T23:16:04.547Z,6.20
2023-01-11T23:18:32.768Z,6.20
2023-01-11T23:21:04.007Z,6.20
2023-01-11T23:23:32.383Z,6.10
2023-01-11T23:26:00.601Z,6.10
2023-01-11T23:28:30.613Z,6.10
2023-01-11T23:30:58.662Z,6.20
2023-01-11T23:33:28.267Z,6.20
2023-01-11T23:35:57.121Z,6.10
2023-01-11T23:38:26.024Z,6.10
2023-01-11T23:41:11.271Z,6.10
2023-01-11T23:43:39.547Z,6.10
2023-01-11T23:46:21.439Z,6.00
2023-01-11T23:48:51.355Z,6.00
2023-01-11T23:51:19.302Z,5.90
2023-01-11T23:53:47.302Z,5.80
2023-01-11T23:56:16.057Z,5.80
2023-01-11T23:58:44.063Z,5.70
